Time;durP1;ratioP1;P1;durP2;ratioP2;P2;SDS_P1;SDS_P2;PMS_P1;PMS_P2;Temp;Humidity;BMP_temperature;BMP_pressure;BME280_temperature;BME280_humidity;BME280_pressure;Samples;Min_cycle;Max_cycle;Signal;HPM_P1;HPM_P2
2021/07/23 00:01:54;;;;;;;15.73;14.13;;;19.90;91.90;;;;;;5079762;28;20517;-37
2021/07/23 00:04:20;;;;;;;14.63;13.23;;;19.80;92.40;;;;;;5079489;28;20192;-38
2021/07/23 00:06:48;;;;;;;13.37;12.17;;;19.80;92.30;;;;;;5079366;28;20169;-37
2021/07/23 00:09:13;;;;;;;15.67;14.17;;;19.80;92.50;;;;;;5079389;28;20509;-37
2021/07/23 00:11:39;;;;;;;15.70;14.10;;;19.80;92.40;;;;;;5079179;28;20494;-38
2021/07/23 00:14:05;;;;;;;15.13;13.63;;;19.90;92.60;;;;;;5078913;28;20267;-39
2021/07/23 00:16:30;;;;;;;14.07;12.60;;;19.90;92.60;;;;;;5078759;28;20217;-38
2021/07/23 00:18:56;;;;;;;14.27;12.97;;;19.90;92.60;;;;;;5078510;28;20509;-37
2021/07/23 00:21:21;;;;;;;16.53;13.37;;;19.80;93.00;;;;;;5078900;28;20184;-37
2021/07/23 00:23:47;;;;;;;16.37;14.70;;;19.80;92.60;;;;;;5078945;28;20177;-38
2021/07/23 00:26:13;;;;;;;15.90;14.30;;;19.80;92.80;;;;;;5078951;28;20242;-37
2021/07/23 00:28:40;;;;;;;14.77;13.27;;;19.80;92.70;;;;;;5077741;28;20189;-37
2021/07/23 00:31:06;;;;;;;17.83;13.43;;;19.80;92.70;;;;;;5077806;28;20466;-37
2021/07/23 00:33:32;;;;;;;14.17;12.67;;;19.80;92.80;;;;;;5059487;28;20439;-37
2021/07/23 00:35:58;;;;;;;15.10;13.63;;;19.80;93.00;;;;;;5078194;28;20618;-36
2021/07/23 00:38:23;;;;;;;15.57;14.10;;;19.80;93.10;;;;;;5060005;28;20562;-37
2021/07/23 00:40:49;;;;;;;15.37;13.77;;;19.80;93.10;;;;;;5078351;28;20197;-37
2021/07/23 00:43:15;;;;;;;15.17;13.33;;;19.70;93.00;;;;;;5060288;28;20587;-37
2021/07/23 00:45:41;;;;;;;16.00;14.40;;;19.70;93.00;;;;;;5061208;28;20518;-39
2021/07/23 00:48:06;;;;;;;17.13;14.10;;;19.70;93.20;;;;;;5078212;28;20427;-38
2021/07/23 00:50:32;;;;;;;14.23;12.90;;;19.70;93.30;;;;;;5078465;28;20192;-38
2021/07/23 00:52:59;;;;;;;14.67;13.17;;;19.70;93.20;;;;;;5060941;28;20482;-38
2021/07/23 00:55:27;;;;;;;15.07;13.57;;;19.70;93.20;;;;;;5078490;28;20238;-39
2021/07/23 00:57:54;;;;;;;13.13;11.90;;;19.80;93.20;;;;;;5077729;28;20581;-41
2021/07/23 01:00:20;;;;;;;15.57;13.97;;;19.70;93.20;;;;;;5078577;28;20530;-38
2021/07/23 01:02:47;;;;;;;14.20;12.70;;;19.70;93.10;;;;;;5077588;28;20511;-38
2021/07/23 01:05:13;;;;;;;14.17;12.80;;;19.70;93.10;;;;;;5078077;28;20192;-38
2021/07/23 01:07:39;;;;;;;14.77;12.37;;;19.70;93.10;;;;;;5078190;28;20411;-39
2021/07/23 01:10:05;;;;;;;14.90;13.40;;;19.70;93.10;;;;;;5077820;28;20727;-38
2021/07/23 01:12:33;;;;;;;14.70;13.17;;;19.70;93.20;;;;;;5043251;28;20177;-38
2021/07/23 01:14:59;;;;;;;13.30;11.90;;;19.70;93.20;;;;;;5060704;28;20580;-39
2021/07/23 01:17:26;;;;;;;14.53;13.13;;;19.60;93.20;;;;;;5059879;28;20562;-39
2021/07/23 01:19:58;;;;;;;14.00;12.60;;;19.60;93.20;;;;;;5077896;28;20177;-38
2021/07/23 01:22:28;;;;;;;12.67;11.47;;;19.60;93.20;;;;;;5077726;28;20831;-38
2021/07/23 01:24:55;;;;;;;14.27;12.77;;;19.60;93.20;;;;;;5059949;28;20439;-39
2021/07/23 01:27:21;;;;;;;12.20;11.00;;;19.60;93.20;;;;;;5059975;28;20422;-39
2021/07/23 01:29:46;;;;;;;13.33;12.03;;;19.60;93.30;;;;;;5060387;28;20459;-38
2021/07/23 01:32:12;;;;;;;13.10;11.90;;;19.60;93.30;;;;;;5060301;28;20495;-39
2021/07/23 01:34:39;;;;;;;12.50;11.30;;;19.60;93.30;;;;;;5077559;28;20463;-39
2021/07/23 01:37:52;;;;;;;13.23;11.93;;;19.60;93.40;;;;;;5077748;28;20177;-39
2021/07/23 01:40:18;;;;;;;12.70;11.40;;;19.60;93.50;;;;;;5077380;28;20722;-38
2021/07/23 01:42:44;;;;;;;14.70;13.17;;;19.50;93.40;;;;;;5077640;28;20510;-38
2021/07/23 01:45:10;;;;;;;14.63;13.13;;;19.50;93.40;;;;;;5059454;28;20449;-38
2021/07/23 01:47:36;;;;;;;13.40;12.03;;;19.50;93.50;;;;;;5077528;28;20854;-39
2021/07/23 01:50:03;;;;;;;13.80;12.50;;;19.50;93.60;;;;;;5077361;28;20451;-39
2021/07/23 01:52:29;;;;;;;14.73;12.40;;;19.50;93.60;;;;;;5077240;28;20185;-38
2021/07/23 01:54:55;;;;;;;14.17;12.67;;;19.40;93.60;;;;;;5077266;28;20907;-38
2021/07/23 01:57:21;;;;;;;12.63;11.43;;;19.40;93.60;;;;;;5077212;28;20407;-38
2021/07/23 01:59:47;;;;;;;14.27;12.97;;;19.40;94.00;;;;;;5077214;28;20196;-38
2021/07/23 02:02:12;;;;;;;13.70;12.30;;;19.40;93.70;;;;;;5077630;28;20260;-39
2021/07/23 02:04:38;;;;;;;15.37;12.60;;;19.40;93.80;;;;;;5059557;28;20436;-37
2021/07/23 02:07:04;;;;;;;14.67;13.17;;;19.40;93.80;;;;;;5077391;28;20203;-39
2021/07/23 02:09:30;;;;;;;14.67;13.17;;;19.40;93.80;;;;;;5059139;28;20233;-38
2021/07/23 02:11:55;;;;;;;14.50;12.63;;;19.40;93.80;;;;;;5077307;28;20260;-38
2021/07/23 02:14:21;;;;;;;15.40;13.80;;;19.40;93.90;;;;;;5076717;28;20676;-38
2021/07/23 02:16:47;;;;;;;13.80;12.40;;;19.30;94.20;;;;;;5076836;28;20470;-38
2021/07/23 02:19:13;;;;;;;14.70;13.20;;;19.30;94.30;;;;;;5077105;28;20890;-38
2021/07/23 02:21:40;;;;;;;13.90;12.40;;;19.30;94.00;;;;;;5077021;28;20445;-39
2021/07/23 02:24:06;;;;;;;14.70;12.60;;;19.20;94.00;;;;;;5076599;28;20456;-38
2021/07/23 02:26:32;;;;;;;13.73;12.33;;;19.20;94.10;;;;;;5076877;28;20408;-38
2021/07/23 02:28:58;;;;;;;15.13;13.67;;;19.20;94.10;;;;;;5059048;28;20465;-38
2021/07/23 02:31:25;;;;;;;14.63;12.73;;;19.20;94.20;;;;;;5077012;28;20781;-38
2021/07/23 02:33:51;;;;;;;12.80;11.60;;;19.20;94.30;;;;;;5076597;28;20187;-40
2021/07/23 02:36:17;;;;;;;14.57;12.70;;;19.20;94.30;;;;;;5076986;28;20468;-38
2021/07/23 02:38:42;;;;;;;14.57;13.07;;;19.20;94.30;;;;;;5076909;28;20475;-39
2021/07/23 02:41:08;;;;;;;15.50;13.90;;;19.20;94.30;;;;;;5076558;28;20411;-39
2021/07/23 02:43:34;;;;;;;13.87;12.20;;;19.20;94.30;;;;;;5076641;28;20472;-39
2021/07/23 02:46:00;;;;;;;16.87;13.37;;;19.10;94.30;;;;;;5076884;28;20230;-39
2021/07/23 02:48:25;;;;;;;15.10;13.50;;;19.10;94.40;;;;;;5076286;28;20173;-39
2021/07/23 02:50:51;;;;;;;13.47;12.17;;;19.10;94.40;;;;;;5076757;28;20514;-38
2021/07/23 02:53:18;;;;;;;14.00;12.50;;;19.00;94.50;;;;;;5058566;28;20188;-39
2021/07/23 02:55:45;;;;;;;14.17;12.80;;;19.00;94.60;;;;;;5076406;28;20449;-39
2021/07/23 02:58:11;;;;;;;13.50;12.10;;;19.00;94.70;;;;;;5079818;28;20547;-38
2021/07/23 03:00:36;;;;;;;14.30;12.97;;;19.00;94.70;;;;;;5080381;28;20525;-38
2021/07/23 03:03:04;;;;;;;15.00;13.40;;;18.90;94.70;;;;;;5062858;28;20407;-37
2021/07/23 03:05:30;;;;;;;16.77;15.10;;;19.00;94.80;;;;;;5080236;28;20196;-39
2021/07/23 03:07:56;;;;;;;15.37;13.87;;;18.90;94.70;;;;;;5062706;28;20519;-39
2021/07/23 03:10:21;;;;;;;14.70;13.40;;;18.90;94.70;;;;;;5079317;28;20714;-38
2021/07/23 03:12:47;;;;;;;14.27;12.80;;;18.90;94.80;;;;;;5079823;28;20441;-38
2021/07/23 03:15:13;;;;;;;13.80;12.43;;;18.80;94.80;;;;;;5080024;28;20337;-38
2021/07/23 03:17:39;;;;;;;16.20;12.87;;;18.80;94.80;;;;;;5080143;28;20225;-39
2021/07/23 03:20:05;;;;;;;15.53;13.90;;;18.80;94.80;;;;;;5079701;28;20450;-38
2021/07/23 03:22:31;;;;;;;13.37;12.07;;;18.80;94.80;;;;;;5078572;28;20415;-39
2021/07/23 03:24:57;;;;;;;13.93;12.53;;;18.70;94.80;;;;;;5078103;28;20427;-38
2021/07/23 03:27:23;;;;;;;13.63;12.23;;;18.70;94.90;;;;;;5077455;28;20165;-38
2021/07/23 03:29:49;;;;;;;13.90;12.50;;;18.70;95.00;;;;;;5077011;28;20698;-41
2021/07/23 03:32:15;;;;;;;14.17;12.87;;;18.70;95.10;;;;;;5076352;28;20184;-37
2021/07/23 03:34:41;;;;;;;14.27;12.77;;;18.70;95.10;;;;;;5076656;28;20179;-37
2021/07/23 03:37:07;;;;;;;13.87;12.57;;;18.70;95.20;;;;;;5078097;28;20779;-38
2021/07/23 03:39:32;;;;;;;14.13;12.73;;;18.60;95.00;;;;;;5076740;28;20841;-37
2021/07/23 03:41:58;;;;;;;14.10;12.80;;;18.60;95.00;;;;;;5076733;28;20634;-38
2021/07/23 03:44:24;;;;;;;14.77;13.20;;;18.60;95.00;;;;;;5077257;28;20192;-37
2021/07/23 03:46:50;;;;;;;16.23;12.93;;;18.60;95.10;;;;;;5078337;28;20474;-38
2021/07/23 03:49:16;;;;;;;14.70;13.30;;;18.50;95.10;;;;;;5077615;28;20445;-39
2021/07/23 03:51:41;;;;;;;14.60;13.17;;;18.50;95.00;;;;;;5077553;28;20415;-37
2021/07/23 03:54:07;;;;;;;14.33;12.93;;;18.50;95.10;;;;;;5076968;28;20181;-37
2021/07/23 03:56:33;;;;;;;14.97;13.47;;;18.50;95.20;;;;;;5059255;28;20227;-38
2021/07/23 03:59:01;;;;;;;15.10;13.17;;;18.50;95.20;;;;;;5076653;28;20789;-38
2021/07/23 04:01:27;;;;;;;14.23;12.83;;;18.40;95.20;;;;;;5077728;28;20536;-37
2021/07/23 04:03:53;;;;;;;13.90;12.47;;;18.40;95.30;;;;;;5078090;28;20467;-39
2021/07/23 04:06:19;;;;;;;14.57;13.00;;;18.40;95.30;;;;;;5078459;28;20165;-39
2021/07/23 04:08:44;;;;;;;15.17;13.60;;;18.40;95.30;;;;;;5078447;28;20430;-41
2021/07/23 04:11:14;;;;;;;14.07;12.77;;;18.40;95.30;;;;;;5079915;28;20184;-40
2021/07/23 04:13:40;;;;;;;13.90;12.60;;;18.40;95.30;;;;;;5079842;28;20189;-39
2021/07/23 04:16:06;;;;;;;14.80;13.30;;;18.40;95.30;;;;;;5079354;28;20485;-38
2021/07/23 04:18:32;;;;;;;15.37;13.77;;;18.40;95.30;;;;;;5079234;28;20486;-40
2021/07/23 04:20:57;;;;;;;14.70;13.30;;;18.40;95.60;;;;;;5079346;28;20523;-39
2021/07/23 04:23:23;;;;;;;15.17;13.67;;;18.40;95.30;;;;;;5077551;28;20183;-39
2021/07/23 04:25:49;;;;;;;15.43;13.93;;;18.40;95.30;;;;;;5078416;28;20416;-37
2021/07/23 04:28:14;;;;;;;14.50;13.10;;;18.40;95.30;;;;;;5077926;28;20196;-39
2021/07/23 04:30:40;;;;;;;16.73;12.27;;;18.40;95.30;;;;;;5077480;28;20264;-38
2021/07/23 04:33:06;;;;;;;14.43;12.93;;;18.50;95.30;;;;;;5077772;28;20177;-39
2021/07/23 04:35:32;;;;;;;15.13;13.60;;;18.50;95.30;;;;;;5076692;28;20431;-39
2021/07/23 04:37:57;;;;;;;15.30;13.83;;;18.50;95.30;;;;;;5077947;28;20262;-40
2021/07/23 04:40:23;;;;;;;15.17;13.67;;;18.50;95.20;;;;;;5078792;28;20181;-41
2021/07/23 04:42:49;;;;;;;13.40;12.10;;;18.50;95.20;;;;;;5078812;28;20184;-39
2021/07/23 04:45:15;;;;;;;14.77;13.07;;;18.50;95.20;;;;;;5078127;28;20419;-40
2021/07/23 04:47:40;;;;;;;12.80;11.50;;;18.50;95.20;;;;;;5078379;28;20252;-38
2021/07/23 04:50:06;;;;;;;13.43;12.03;;;18.60;95.20;;;;;;5076954;28;20435;-39
2021/07/23 04:52:32;;;;;;;14.70;13.20;;;18.60;95.20;;;;;;5077640;28;20181;-39
2021/07/23 04:54:59;;;;;;;14.47;12.90;;;18.60;95.10;;;;;;5078310;28;20419;-38
2021/07/23 04:57:28;;;;;;;14.40;12.90;;;18.70;95.10;;;;;;5079798;28;20223;-39
2021/07/23 04:59:54;;;;;;;13.70;12.33;;;18.70;95.00;;;;;;5077175;28;20539;-38
2021/07/23 05:02:20;;;;;;;13.93;12.57;;;18.70;95.00;;;;;;5077536;28;20490;-39
2021/07/23 05:04:45;;;;;;;14.97;13.43;;;18.80;95.00;;;;;;5078068;28;20557;-38
2021/07/23 05:07:11;;;;;;;13.43;12.03;;;18.80;94.90;;;;;;5078499;28;20169;-40
2021/07/23 05:09:37;;;;;;;14.30;13.00;;;18.80;94.80;;;;;;5077927;28;20507;-39
2021/07/23 05:12:03;;;;;;;12.73;11.47;;;18.90;94.80;;;;;;5058840;28;20415;-38
2021/07/23 05:14:31;;;;;;;12.93;11.70;;;18.90;94.80;;;;;;5077183;28;20603;-39
2021/07/23 05:16:58;;;;;;;14.37;12.97;;;19.00;94.80;;;;;;5076262;28;20494;-40
2021/07/23 05:19:24;;;;;;;14.53;13.07;;;19.10;94.70;;;;;;5075701;28;20578;-39
2021/07/23 05:21:50;;;;;;;14.20;12.80;;;19.10;94.60;;;;;;5077044;28;20946;-40
2021/07/23 05:24:16;;;;;;;13.30;11.90;;;19.20;94.50;;;;;;5059456;28;20423;-39
2021/07/23 05:26:42;;;;;;;15.03;13.43;;;19.30;94.50;;;;;;5076308;28;20400;-38
2021/07/23 05:29:08;;;;;;;15.20;12.90;;;19.30;94.30;;;;;;5075607;28;20448;-39
2021/07/23 05:31:40;;;;;;;14.90;13.17;;;19.30;94.00;;;;;;5075395;28;20650;-39
2021/07/23 05:34:06;;;;;;;14.97;13.47;;;19.30;94.10;;;;;;5075318;28;20435;-39
2021/07/23 05:36:32;;;;;;;15.60;13.70;;;19.40;94.30;;;;;;5073902;28;20416;-39
2021/07/23 05:38:57;;;;;;;16.07;12.23;;;19.40;94.20;;;;;;5072337;28;20570;-39
2021/07/23 05:41:23;;;;;;;15.27;13.50;;;19.40;94.30;;;;;;5072873;28;20169;-38
2021/07/23 05:43:49;;;;;;;14.77;13.17;;;19.50;94.00;;;;;;5075710;28;20181;-39
2021/07/23 05:46:15;;;;;;;14.77;13.30;;;19.50;94.00;;;;;;5075166;28;20552;-39
2021/07/23 05:48:41;;;;;;;15.90;13.80;;;19.50;94.00;;;;;;5075666;28;20538;-39
2021/07/23 05:51:09;;;;;;;13.50;12.17;;;19.60;94.10;;;;;;5075687;28;20173;-39
2021/07/23 05:53:35;;;;;;;15.67;14.07;;;19.70;94.10;;;;;;5074163;28;20427;-39
2021/07/23 05:56:01;;;;;;;14.77;13.30;;;19.80;93.80;;;;;;5074795;28;20415;-43
2021/07/23 05:58:28;;;;;;;13.80;12.40;;;19.90;93.70;;;;;;5073917;28;20731;-40
2021/07/23 06:00:54;;;;;;;14.20;12.80;;;20.00;93.30;;;;;;5055364;28;20407;-39
2021/07/23 06:03:20;;;;;;;14.10;12.80;;;20.10;93.20;;;;;;5074164;28;20502;-39
2021/07/23 06:05:46;;;;;;;13.40;12.10;;;20.30;93.10;;;;;;5074212;28;20511;-38
2021/07/23 06:08:12;;;;;;;15.07;12.63;;;20.40;92.90;;;;;;5073831;28;20411;-39
2021/07/23 06:10:38;;;;;;;13.47;12.13;;;20.60;92.60;;;;;;5076290;28;20177;-41
2021/07/23 06:13:04;;;;;;;13.77;12.47;;;20.70;92.40;;;;;;5075043;28;20435;-39
2021/07/23 06:15:29;;;;;;;13.90;12.03;;;20.80;92.10;;;;;;5075633;28;20373;-39
2021/07/23 06:17:56;;;;;;;14.90;13.40;;;20.90;92.00;;;;;;5076162;28;20454;-39
2021/07/23 06:20:22;;;;;;;13.43;12.03;;;21.10;91.80;;;;;;5076016;28;20255;-39
2021/07/23 06:22:48;;;;;;;18.40;13.63;;;21.20;91.60;;;;;;5076207;28;20872;-38
2021/07/23 06:25:14;;;;;;;15.27;13.70;;;21.30;91.30;;;;;;5074611;28;20572;-41
2021/07/23 06:27:40;;;;;;;14.87;13.40;;;21.40;91.20;;;;;;5075639;28;20227;-39
2021/07/23 06:30:06;;;;;;;15.50;13.77;;;21.50;91.10;;;;;;5075747;28;20263;-40
2021/07/23 06:32:32;;;;;;;15.00;13.43;;;21.60;91.00;;;;;;5079310;28;20495;-40
2021/07/23 06:35:01;;;;;;;15.80;13.47;;;21.70;90.70;;;;;;5078872;28;20723;-40
2021/07/23 06:37:27;;;;;;;15.70;13.97;;;21.70;90.50;;;;;;5078187;28;20411;-40
2021/07/23 06:39:53;;;;;;;18.67;13.83;;;21.80;90.40;;;;;;5062234;28;20824;-40
2021/07/23 06:42:22;;;;;;;15.80;13.73;;;21.80;90.10;;;;;;5079363;28;20411;-39
2021/07/23 06:44:50;;;;;;;17.83;13.83;;;21.90;90.00;;;;;;5061128;28;20549;-39
2021/07/23 06:47:17;;;;;;;14.47;13.07;;;22.00;90.00;;;;;;5078889;28;20407;-40
2021/07/23 06:49:43;;;;;;;16.10;14.20;;;22.20;90.00;;;;;;5078400;28;20912;-39
2021/07/23 06:52:08;;;;;;;14.70;13.20;;;22.30;88.90;;;;;;5079163;28;20415;-39
2021/07/23 06:54:37;;;;;;;14.57;12.77;;;22.40;88.50;;;;;;5079939;28;20226;-40
2021/07/23 06:57:04;;;;;;;14.80;13.00;;;22.50;88.10;;;;;;5063098;28;20200;-38
2021/07/23 06:59:34;;;;;;;15.83;14.07;;;22.60;88.00;;;;;;5078879;28;20470;-39
2021/07/23 07:02:00;;;;;;;18.33;15.37;;;22.80;87.30;;;;;;5080547;28;20499;-39
2021/07/23 07:04:26;;;;;;;14.47;12.90;;;22.80;86.60;;;;;;5062162;28;20435;-41
2021/07/23 07:06:59;;;;;;;16.37;14.03;;;22.70;87.10;;;;;;5078613;28;20490;-40
2021/07/23 07:09:36;;;;;;;13.53;12.13;;;22.80;87.30;;;;;;5084495;28;20438;-39
2021/07/23 07:12:03;;;;;;;15.57;12.47;;;23.00;86.90;;;;;;5066927;28;20437;-39
2021/07/23 07:14:29;;;;;;;16.73;13.60;;;23.20;86.50;;;;;;5082718;28;20713;-39
2021/07/23 07:16:55;;;;;;;14.37;12.93;;;23.40;85.90;;;;;;5086808;28;20529;-39
2021/07/23 07:19:22;;;;;;;15.43;13.70;;;23.60;85.30;;;;;;5098410;28;20816;-39
2021/07/23 07:21:48;;;;;;;14.60;13.10;;;23.80;85.30;;;;;;5096981;28;20176;-39
2021/07/23 07:24:18;;;;;;;15.03;13.47;;;24.00;84.80;;;;;;5096449;28;20430;-39
2021/07/23 07:26:48;;;;;;;15.60;14.00;;;24.10;84.30;;;;;;5097489;28;20509;-38
2021/07/23 07:29:14;;;;;;;14.57;12.40;;;24.30;84.10;;;;;;5097613;28;20460;-38
2021/07/23 07:31:40;;;;;;;14.73;12.50;;;24.50;84.20;;;;;;5097646;28;20418;-41
2021/07/23 07:34:06;;;;;;;15.57;12.50;;;24.60;83.70;;;;;;5096853;28;20434;-39
2021/07/23 07:36:32;;;;;;;19.93;14.67;;;24.90;83.10;;;;;;5097542;28;20419;-39
2021/07/23 07:38:58;;;;;;;16.40;14.80;;;25.10;82.80;;;;;;5098442;28;20473;-40
2021/07/23 07:41:26;;;;;;;13.27;12.03;;;25.30;82.00;;;;;;5096394;28;20449;-38
2021/07/23 07:43:52;;;;;;;14.77;13.27;;;25.40;81.10;;;;;;5095575;28;20410;-38
2021/07/23 07:46:18;;;;;;;16.20;13.50;;;25.60;80.40;;;;;;5096449;28;20418;-39
2021/07/23 07:48:44;;;;;;;15.00;13.50;;;25.90;79.00;;;;;;5080213;28;20441;-40
2021/07/23 07:51:10;;;;;;;13.67;12.40;;;25.80;78.60;;;;;;5097811;28;20414;-38
2021/07/23 07:53:36;;;;;;;15.30;13.80;;;25.80;79.20;;;;;;5078949;28;20449;-39
2021/07/23 07:56:12;;;;;;;16.30;14.70;;;25.80;78.50;;;;;;5097132;28;20470;-39
2021/07/23 07:58:38;;;;;;;15.17;13.60;;;25.80;78.90;;;;;;5096123;28;20470;-40
2021/07/23 08:01:10;;;;;;;14.37;12.87;;;25.80;79.10;;;;;;5095712;28;20479;-39
2021/07/23 08:03:36;;;;;;;15.47;13.87;;;26.00;78.80;;;;;;5094223;28;20219;-40
2021/07/23 08:06:06;;;;;;;14.53;13.07;;;26.30;78.10;;;;;;5094426;28;20662;-42
2021/07/23 08:08:32;;;;;;;15.67;13.90;;;26.40;77.00;;;;;;5094769;28;20441;-38
2021/07/23 08:10:58;;;;;;;13.70;12.40;;;26.60;77.40;;;;;;5095161;28;20406;-38
2021/07/23 08:13:27;;;;;;;15.33;13.83;;;26.80;74.30;;;;;;5096205;28;20442;-39
2021/07/23 08:15:56;;;;;;;14.17;12.87;;;26.80;73.30;;;;;;5097587;28;20232;-38
2021/07/23 08:18:22;;;;;;;14.63;13.23;;;26.80;72.50;;;;;;5097667;28;20516;-38
2021/07/23 08:20:50;;;;;;;13.70;12.40;;;26.90;71.80;;;;;;5097402;28;20406;-38
2021/07/23 08:23:18;;;;;;;14.33;13.13;;;27.10;73.10;;;;;;5098113;28;20421;-39
2021/07/23 08:25:43;;;;;;;13.30;12.10;;;27.40;73.70;;;;;;5091007;28;20410;-38
2021/07/23 08:28:10;;;;;;;14.10;12.70;;;27.70;71.40;;;;;;5078627;28;20429;-40
2021/07/23 08:30:35;;;;;;;14.37;12.93;;;27.90;72.80;;;;;;5078251;28;20208;-38
2021/07/23 08:33:01;;;;;;;13.50;12.20;;;28.20;71.90;;;;;;5077589;28;20809;-39
2021/07/23 08:35:27;;;;;;;12.13;11.10;;;28.40;72.00;;;;;;5077592;28;20183;-39
2021/07/23 08:37:53;;;;;;;15.40;13.90;;;28.60;70.60;;;;;;5079406;28;20443;-39
2021/07/23 08:40:18;;;;;;;13.87;12.57;;;28.90;68.70;;;;;;5077630;28;20580;-39
2021/07/23 08:42:46;;;;;;;12.43;11.33;;;29.00;67.00;;;;;;5078228;28;20265;-38
2021/07/23 08:45:12;;;;;;;14.03;12.70;;;29.20;66.60;;;;;;5077691;28;20428;-38
2021/07/23 08:47:37;;;;;;;14.80;13.60;;;29.50;63.70;;;;;;5077516;28;20510;-38
2021/07/23 08:50:05;;;;;;;13.50;12.30;;;29.60;62.90;;;;;;5075617;28;20557;-38
2021/07/23 08:52:57;;;;;;;13.00;11.70;;;29.50;64.60;;;;;;5077609;28;20169;-38
2021/07/23 08:55:24;;;;;;;14.40;13.10;;;29.50;61.90;;;;;;5072110;28;20741;-39
2021/07/23 08:57:51;;;;;;;12.83;11.73;;;29.70;59.90;;;;;;5077379;28;20411;-37
2021/07/23 09:00:21;;;;;;;14.83;13.43;;;29.70;63.60;;;;;;5075657;28;20508;-38
2021/07/23 09:02:50;;;;;;;15.03;13.43;;;29.80;60.00;;;;;;5058594;28;20402;-38
2021/07/23 09:05:16;;;;;;;14.90;13.47;;;29.80;59.80;;;;;;5076226;28;20423;-38
2021/07/23 09:07:42;;;;;;;14.57;13.10;;;29.80;59.10;;;;;;5076461;28;20426;-37
2021/07/23 09:10:07;;;;;;;15.33;13.97;;;29.80;59.80;;;;;;5076552;28;20439;-38
2021/07/23 09:12:43;;;;;;;15.27;13.97;;;29.90;61.60;;;;;;5075239;28;20702;-38
2021/07/23 09:15:18;;;;;;;13.93;12.73;;;30.20;58.60;;;;;;5075872;28;20773;-38
2021/07/23 09:17:44;;;;;;;15.03;13.83;;;30.30;57.50;;;;;;5076067;28;20470;-38
2021/07/23 09:20:10;;;;;;;13.50;12.40;;;30.20;56.80;;;;;;5076777;28;20435;-37
2021/07/23 09:22:43;;;;;;;14.63;13.17;;;29.90;56.90;;;;;;5076139;28;20438;-38
2021/07/23 09:25:09;;;;;;;14.93;13.70;;;29.60;57.40;;;;;;5075581;28;20409;-36
2021/07/23 09:27:35;;;;;;;13.63;12.33;;;29.60;56.90;;;;;;5074207;28;20821;-37
2021/07/23 09:30:02;;;;;;;13.53;12.33;;;29.40;57.60;;;;;;5072653;28;20441;-38
2021/07/23 09:32:28;;;;;;;14.10;12.80;;;29.40;57.50;;;;;;5074557;28;20387;-39
2021/07/23 09:35:08;;;;;;;13.80;12.43;;;29.80;59.00;;;;;;5074386;28;20753;-39
2021/07/23 09:37:54;;;;;;;15.07;13.73;;;30.40;58.50;;;;;;5073416;28;20527;-39
2021/07/23 09:40:21;;;;;;;14.17;12.90;;;31.00;57.20;;;;;;5072417;28;20862;-38
2021/07/23 09:42:57;;;;;;;14.07;12.77;;;31.50;57.80;;;;;;5055192;28;20419;-38
2021/07/23 09:45:31;;;;;;;13.23;12.13;;;32.10;57.80;;;;;;5074771;28;20714;-39
2021/07/23 09:48:14;;;;;;;14.47;12.97;;;32.70;56.70;;;;;;5055978;28;20882;-38
2021/07/23 09:50:47;;;;;;;13.30;12.20;;;33.10;55.00;;;;;;5075217;28;20699;-38
2021/07/23 09:53:15;;;;;;;13.43;12.23;;;33.20;51.80;;;;;;5076633;28;20416;-38
2021/07/23 09:55:46;;;;;;;15.03;13.73;;;32.90;52.10;;;;;;5075744;28;20715;-38
2021/07/23 09:58:19;;;;;;;14.67;13.37;;;32.20;51.50;;;;;;5075535;28;20463;-39
2021/07/23 10:00:51;;;;;;;15.33;13.80;;;31.70;54.80;;;;;;5057941;28;20836;-38
2021/07/23 10:03:19;;;;;;;14.17;12.97;;;31.80;54.90;;;;;;5075224;28;20872;-37
2021/07/23 10:05:52;;;;;;;14.10;12.70;;;32.40;53.60;;;;;;5056732;28;20698;-39
2021/07/23 10:08:24;;;;;;;14.63;13.43;;;32.70;51.80;;;;;;5075376;28;20396;-39
2021/07/23 10:10:52;;;;;;;13.60;12.50;;;32.80;50.50;;;;;;5077409;28;20390;-37
2021/07/23 10:13:23;;;;;;;14.80;12.40;;;31.20;50.80;;;;;;5076897;28;20422;-39
2021/07/23 10:15:50;;;;;;;13.40;12.10;;;31.10;50.60;;;;;;5057272;28;20765;-39
2021/07/23 10:18:16;;;;;;;13.40;12.30;;;31.40;52.10;;;;;;5042698;28;20442;-40
2021/07/23 10:20:45;;;;;;;13.70;12.60;;;31.50;51.40;;;;;;5075020;28;20829;-39
2021/07/23 10:23:11;;;;;;;14.80;13.40;;;31.40;51.00;;;;;;5075628;28;20412;-38
2021/07/23 10:25:37;;;;;;;18.30;13.90;;;31.30;51.90;;;;;;5041505;28;20718;-40
2021/07/23 10:28:04;;;;;;;14.70;13.23;;;31.40;51.40;;;;;;5058685;28;20506;-38
2021/07/23 10:30:33;;;;;;;13.87;12.77;;;31.50;51.40;;;;;;5074878;28;20446;-38
2021/07/23 10:32:59;;;;;;;14.20;12.90;;;32.00;50.30;;;;;;5077099;28;20416;-37
2021/07/23 10:35:25;;;;;;;13.93;12.53;;;31.60;50.50;;;;;;5058311;28;20511;-38
2021/07/23 10:37:52;;;;;;;13.77;12.37;;;31.10;50.40;;;;;;5075328;28;20835;-39
2021/07/23 10:40:20;;;;;;;14.00;12.80;;;31.80;50.90;;;;;;5058068;28;20450;-37
2021/07/23 10:42:46;;;;;;;13.87;12.67;;;32.10;49.60;;;;;;5057704;28;20415;-38
2021/07/23 10:45:14;;;;;;;13.70;12.40;;;32.40;48.90;;;;;;5057502;28;20449;-39
2021/07/23 10:47:44;;;;;;;12.57;11.57;;;32.60;48.90;;;;;;5075137;28;20741;-39
2021/07/23 10:50:22;;;;;;;14.20;13.00;;;32.60;48.30;;;;;;5057036;28;20423;-39
2021/07/23 10:52:48;;;;;;;13.57;12.57;;;32.20;48.00;;;;;;5077225;28;20386;-40
2021/07/23 10:55:22;;;;;;;13.23;12.03;;;32.40;48.00;;;;;;5076942;28;20397;-38
2021/07/23 10:58:08;;;;;;;13.17;12.00;;;32.40;46.70;;;;;;5075580;28;20394;-39
2021/07/23 11:00:47;;;;;;;14.97;13.57;;;32.60;47.30;;;;;;5075952;28;20488;-38
2021/07/23 11:03:35;;;;;;;12.60;11.50;;;32.60;46.30;;;;;;5075394;28;20418;-39
2021/07/23 11:06:23;;;;;;;13.50;12.30;;;32.80;47.60;;;;;;5074274;28;20670;-38
2021/07/23 11:08:51;;;;;;;13.23;11.90;;;32.40;45.70;;;;;;5074365;28;20436;-39
2021/07/23 11:11:18;;;;;;;14.40;13.30;;;31.50;47.40;;;;;;5073877;28;20389;-39
2021/07/23 11:13:45;;;;;;;13.13;11.73;;;32.60;47.60;;;;;;5074757;28;20530;-40
2021/07/23 11:16:19;;;;;;;13.80;12.67;;;33.10;45.80;;;;;;5075780;28;20482;-39
2021/07/23 11:18:54;;;;;;;14.17;12.83;;;33.70;45.80;;;;;;5083855;28;20906;-40
2021/07/23 11:21:21;;;;;;;13.43;12.13;;;34.30;44.90;;;;;;5099258;28;20420;-39
2021/07/23 11:23:47;;;;;;;13.30;12.10;;;34.90;44.80;;;;;;5098566;28;20517;-38
2021/07/23 11:26:22;;;;;;;14.37;13.07;;;34.80;44.80;;;;;;5099255;28;20496;-37
2021/07/23 11:28:50;;;;;;;14.13;12.83;;;33.80;44.00;;;;;;5100536;28;20506;-38
2021/07/23 11:31:37;;;;;;;14.53;13.33;;;34.10;45.30;;;;;;5100170;28;20389;-39
2021/07/23 11:34:25;;;;;;;13.03;12.03;;;34.00;43.50;;;;;;5099487;28;20860;-39
2021/07/23 11:36:51;;;;;;;14.20;13.00;;;33.40;43.50;;;;;;5082086;28;20414;-39
2021/07/23 11:39:20;;;;;;;13.00;11.90;;;33.10;43.10;;;;;;5098869;28;20448;-38
2021/07/23 11:42:06;;;;;;;14.20;12.80;;;32.80;44.80;;;;;;5098984;28;20411;-38
2021/07/23 11:44:33;;;;;;;13.53;12.33;;;32.50;45.90;;;;;;5096784;28;20915;-39
2021/07/23 11:46:58;;;;;;;14.60;13.17;;;32.20;45.60;;;;;;5079629;28;20418;-40
2021/07/23 11:49:31;;;;;;;13.77;12.67;;;32.00;46.80;;;;;;5098094;28;20405;-38
2021/07/23 11:51:56;;;;;;;13.97;12.67;;;32.20;46.20;;;;;;5098504;28;20237;-39
2021/07/23 11:54:22;;;;;;;15.07;13.67;;;31.40;47.30;;;;;;5081022;28;20409;-39
2021/07/23 11:56:48;;;;;;;14.30;13.10;;;31.80;48.60;;;;;;5098836;28;20177;-40
2021/07/23 11:59:14;;;;;;;12.90;11.80;;;32.50;49.40;;;;;;5098521;28;20474;-38
2021/07/23 12:01:41;;;;;;;14.50;13.13;;;33.40;48.40;;;;;;5097622;28;20560;-40
2021/07/23 12:04:08;;;;;;;14.30;13.10;;;33.60;44.70;;;;;;5096194;28;20411;-39
2021/07/23 12:06:38;;;;;;;13.33;12.33;;;32.90;45.00;;;;;;5077445;28;20500;-39
2021/07/23 12:09:06;;;;;;;14.70;13.50;;;32.50;46.00;;;;;;5096084;28;20413;-38
2021/07/23 12:11:32;;;;;;;13.60;12.40;;;33.30;45.20;;;;;;5096192;28;20815;-39
2021/07/23 12:14:04;;;;;;;13.70;12.43;;;33.40;45.20;;;;;;5095789;28;20436;-39
2021/07/23 12:16:30;;;;;;;14.30;13.20;;;33.90;43.90;;;;;;5077309;28;20785;-37
2021/07/23 12:18:56;;;;;;;13.80;12.43;;;33.20;43.20;;;;;;5097281;28;20507;-38
2021/07/23 12:21:24;;;;;;;13.87;12.57;;;33.00;42.30;;;;;;5097690;28;20208;-38
2021/07/23 12:24:19;;;;;;;13.70;12.60;;;32.20;43.60;;;;;;5081034;28;20521;-39
2021/07/23 12:26:47;;;;;;;14.47;13.27;;;33.00;44.80;;;;;;5058386;28;20517;-37
2021/07/23 12:29:15;;;;;;;14.17;13.07;;;33.70;43.00;;;;;;5098325;28;20512;-37
2021/07/23 12:31:41;;;;;;;13.83;12.63;;;33.10;42.90;;;;;;5098062;28;20419;-38